Time;durP1;ratioP1;P1;durP2;ratioP2;P2;SDS_P1;SDS_P2;PMS_P1;PMS_P2;Temp;Humidity;BMP_temperature;BMP_pressure;BME280_temperature;BME280_humidity;BME280_pressure;Samples;Min_cycle;Max_cycle;Signal;HPM_P1;HPM_P2
2020/12/25 00:01:33;;;;;;;1.33;1.05;;;11.30;79.20;;;;;;5124789;28;20023;-43
2020/12/25 00:04:00;;;;;;;1.20;0.88;;;11.30;79.20;;;;;;5106076;28;20054;-43
2020/12/25 00:06:34;;;;;;;1.17;1.02;;;11.30;79.20;;;;;;5104118;28;20028;-43
2020/12/25 00:09:00;;;;;;;0.82;0.82;;;11.20;79.10;;;;;;5104386;28;20118;-43
2020/12/25 00:11:30;;;;;;;1.38;1.00;;;11.20;79.10;;;;;;5104222;28;20024;-43
2020/12/25 00:13:57;;;;;;;1.33;0.90;;;11.20;79.20;;;;;;5086034;28;20028;-43
2020/12/25 00:16:29;;;;;;;1.52;0.90;;;11.20;79.10;;;;;;5103880;28;20032;-43
2020/12/25 00:18:55;;;;;;;1.33;0.90;;;11.20;79.10;;;;;;5124043;27;20036;-43
2020/12/25 00:21:21;;;;;;;1.60;0.88;;;11.10;79.20;;;;;;5144982;27;20134;-43
2020/12/25 00:23:47;;;;;;;1.00;0.85;;;11.10;79.10;;;;;;5144972;27;20039;-43
2020/12/25 00:26:24;;;;;;;1.30;0.80;;;11.10;79.10;;;;;;5144709;27;20118;-43
2020/12/25 00:28:51;;;;;;;0.88;0.80;;;11.10;79.10;;;;;;5144968;27;20019;-43
2020/12/25 00:31:33;;;;;;;2.65;1.17;;;11.10;79.10;;;;;;5144921;27;20034;-43
2020/12/25 00:34:00;;;;;;;1.23;0.88;;;11.10;79.10;;;;;;5125931;27;20041;-43
2020/12/25 00:36:28;;;;;;;0.95;0.90;;;11.00;79.00;;;;;;5123896;28;20035;-43
2020/12/25 00:38:55;;;;;;;1.40;1.00;;;11.00;79.00;;;;;;5126824;27;20059;-43
2020/12/25 00:41:21;;;;;;;0.98;0.75;;;11.00;79.70;;;;;;5123887;28;20031;-43
2020/12/25 00:43:47;;;;;;;1.35;0.90;;;11.00;79.70;;;;;;5124257;28;20031;-43
2020/12/25 00:46:13;;;;;;;2.78;1.00;;;11.00;79.00;;;;;;5123692;28;20087;-42
2020/12/25 00:48:40;;;;;;;2.95;1.10;;;10.90;79.00;;;;;;5124107;28;20361;-43
2020/12/25 00:51:14;;;;;;;1.58;1.42;;;10.90;79.00;;;;;;5123886;28;20051;-43
2020/12/25 00:53:40;;;;;;;1.23;1.00;;;10.90;79.00;;;;;;5123869;28;20028;-43
2020/12/25 00:56:07;;;;;;;1.20;1.10;;;10.90;79.00;;;;;;5123698;28;20028;-42
2020/12/25 00:58:33;;;;;;;2.08;0.90;;;10.90;79.00;;;;;;5123532;28;20024;-42
2020/12/25 01:00:59;;;;;;;2.92;0.80;;;10.90;79.00;;;;;;5123671;28;20080;-43
2020/12/25 01:03:25;;;;;;;1.88;1.17;;;10.90;79.00;;;;;;5109891;28;20024;-43
2020/12/25 01:05:51;;;;;;;1.45;0.95;;;10.80;78.90;;;;;;5103076;28;20020;-43
2020/12/25 01:08:17;;;;;;;1.55;1.20;;;10.80;79.00;;;;;;5102975;28;20034;-43
2020/12/25 01:10:43;;;;;;;1.83;1.10;;;10.80;79.00;;;;;;5103038;28;20477;-42
2020/12/25 01:13:10;;;;;;;1.20;1.10;;;10.80;79.00;;;;;;5103204;28;20044;-43
2020/12/25 01:15:36;;;;;;;1.60;1.10;;;10.70;78.80;;;;;;5118775;28;20035;-43
2020/12/25 01:18:02;;;;;;;1.02;0.80;;;10.70;78.90;;;;;;5102961;28;20012;-43
2020/12/25 01:20:28;;;;;;;1.25;0.95;;;10.70;78.80;;;;;;5133407;27;20057;-43
2020/12/25 01:22:56;;;;;;;0.95;0.80;;;10.70;78.90;;;;;;5144342;27;20101;-43
2020/12/25 01:25:22;;;;;;;4.03;0.95;;;10.70;78.80;;;;;;5143926;27;20057;-43
2020/12/25 01:27:48;;;;;;;2.00;1.20;;;10.60;78.70;;;;;;5143691;27;20100;-43
2020/12/25 01:30:14;;;;;;;1.08;0.90;;;10.60;78.80;;;;;;5144014;27;20684;-43
2020/12/25 01:32:41;;;;;;;1.20;0.90;;;10.60;78.70;;;;;;5135991;27;20027;-43
2020/12/25 01:35:07;;;;;;;1.35;1.10;;;10.60;78.70;;;;;;5123327;28;20036;-43
2020/12/25 01:37:33;;;;;;;1.40;0.90;;;10.60;78.80;;;;;;5134733;28;20049;-47
2020/12/25 01:39:59;;;;;;;1.08;0.90;;;10.50;78.70;;;;;;5142695;28;20031;-43
2020/12/25 01:42:25;;;;;;;1.48;1.15;;;10.50;78.70;;;;;;5125309;28;20048;-42
2020/12/25 01:44:51;;;;;;;1.00;0.85;;;10.50;78.80;;;;;;5123166;28;20031;-43
2020/12/25 01:47:18;;;;;;;1.77;0.80;;;10.50;78.70;;;;;;5122869;28;20156;-42
2020/12/25 01:49:44;;;;;;;1.63;1.10;;;10.50;78.80;;;;;;5104936;28;20020;-43
2020/12/25 01:52:11;;;;;;;1.58;1.10;;;10.40;78.70;;;;;;5108806;28;20023;-43
2020/12/25 01:54:37;;;;;;;0.60;0.60;;;10.40;78.60;;;;;;5127288;28;20036;-43
2020/12/25 01:57:04;;;;;;;1.00;0.90;;;10.40;78.70;;;;;;5108741;28;20032;-43
2020/12/25 01:59:30;;;;;;;1.75;1.00;;;10.40;78.70;;;;;;5108935;28;20046;-43
2020/12/25 02:01:57;;;;;;;0.90;0.80;;;10.40;78.70;;;;;;5108937;28;20054;-43
2020/12/25 02:04:23;;;;;;;1.50;0.95;;;10.30;78.50;;;;;;5108766;28;20034;-44
2020/12/25 02:06:50;;;;;;;3.72;0.90;;;10.30;78.60;;;;;;5116881;28;20085;-43
2020/12/25 02:09:16;;;;;;;1.05;0.70;;;10.30;78.60;;;;;;5106279;28;20072;-43
2020/12/25 02:11:42;;;;;;;2.00;0.95;;;10.30;78.60;;;;;;5106626;28;20044;-43
2020/12/25 02:14:08;;;;;;;1.30;1.08;;;10.30;78.60;;;;;;5088206;28;20091;-43
2020/12/25 02:16:35;;;;;;;1.98;0.95;;;10.30;78.60;;;;;;5106496;28;20040;-43
2020/12/25 02:19:01;;;;;;;1.25;0.82;;;10.30;78.60;;;;;;5112232;27;20056;-44
2020/12/25 02:21:27;;;;;;;1.60;1.02;;;10.20;78.60;;;;;;5146981;27;20081;-43
2020/12/25 02:23:53;;;;;;;0.68;0.60;;;10.20;78.60;;;;;;5147523;27;20031;-43
2020/12/25 02:26:20;;;;;;;1.90;0.95;;;10.20;78.70;;;;;;5147149;27;20122;-43
2020/12/25 02:28:46;;;;;;;1.23;0.80;;;10.20;78.60;;;;;;5147154;27;20015;-43
2020/12/25 02:31:12;;;;;;;1.33;1.05;;;10.20;78.70;;;;;;5135245;27;20027;-43
2020/12/25 02:33:38;;;;;;;1.77;1.00;;;10.20;78.60;;;;;;5126628;28;20719;-43
2020/12/25 02:36:04;;;;;;;0.70;0.70;;;10.10;78.50;;;;;;5122784;28;20032;-43
2020/12/25 02:38:30;;;;;;;1.33;0.90;;;10.10;78.60;;;;;;5105636;28;20043;-42
2020/12/25 02:40:56;;;;;;;0.80;0.80;;;10.10;78.50;;;;;;5105925;28;20028;-43
2020/12/25 02:43:23;;;;;;;1.67;0.90;;;10.10;78.60;;;;;;5105972;28;20016;-42
2020/12/25 02:45:49;;;;;;;0.77;0.77;;;10.00;78.60;;;;;;5106005;28;20061;-43
2020/12/25 02:48:15;;;;;;;2.08;1.20;;;10.00;78.50;;;;;;5106488;27;20736;-43
2020/12/25 02:50:41;;;;;;;1.00;0.73;;;10.00;78.60;;;;;;5126145;28;20028;-42
2020/12/25 02:53:07;;;;;;;0.80;0.70;;;10.00;78.50;;;;;;5126264;28;20060;-43
2020/12/25 02:55:34;;;;;;;1.10;1.00;;;10.00;78.70;;;;;;5126266;28;20032;-43
2020/12/25 02:58:00;;;;;;;1.70;0.77;;;9.90;78.50;;;;;;5125892;28;20092;-43
2020/12/25 03:00:26;;;;;;;1.00;0.80;;;9.90;78.50;;;;;;5125971;28;20032;-43
2020/12/25 03:02:52;;;;;;;1.73;0.95;;;9.90;78.50;;;;;;5115502;28;20020;-43
2020/12/25 03:05:18;;;;;;;1.83;1.10;;;9.90;78.60;;;;;;5105318;28;20042;-43
2020/12/25 03:07:44;;;;;;;0.98;0.80;;;9.90;78.50;;;;;;5087182;28;20031;-43
2020/12/25 03:10:10;;;;;;;1.33;1.00;;;9.80;78.50;;;;;;5105156;28;20024;-43
2020/12/25 03:12:36;;;;;;;2.00;1.08;;;9.90;78.70;;;;;;5105064;28;20028;-43
2020/12/25 03:15:03;;;;;;;1.08;0.70;;;9.80;78.50;;;;;;5105278;28;20052;-43
2020/12/25 03:17:29;;;;;;;0.98;0.88;;;9.80;78.50;;;;;;5125152;28;20026;-42
2020/12/25 03:19:56;;;;;;;1.42;0.70;;;9.80;78.50;;;;;;5136217;27;20050;-43
2020/12/25 03:22:22;;;;;;;0.82;0.80;;;9.80;78.50;;;;;;5146169;27;20112;-43
2020/12/25 03:24:48;;;;;;;2.08;0.77;;;9.70;78.50;;;;;;5146364;27;20023;-43
2020/12/25 03:27:14;;;;;;;1.77;0.93;;;9.70;78.40;;;;;;5146043;27;20027;-43
2020/12/25 03:29:40;;;;;;;1.20;1.05;;;9.70;78.40;;;;;;5146140;27;20031;-43
2020/12/25 03:32:06;;;;;;;0.80;0.73;;;9.70;79.20;;;;;;5143125;27;20076;-42
2020/12/25 03:34:33;;;;;;;1.73;0.82;;;9.70;78.50;;;;;;5125296;28;20054;-43
2020/12/25 03:36:59;;;;;;;2.33;0.85;;;9.70;78.40;;;;;;5125327;28;20032;-43
2020/12/25 03:39:25;;;;;;;1.33;0.90;;;9.70;78.30;;;;;;5125370;28;20020;-43
2020/12/25 03:41:52;;;;;;;1.08;0.90;;;9.60;78.40;;;;;;5125119;28;20032;-42
2020/12/25 03:44:19;;;;;;;0.95;0.88;;;9.60;78.40;;;;;;5135011;27;20050;-42
2020/12/25 03:46:45;;;;;;;1.05;0.80;;;9.60;78.40;;;;;;5146043;27;20042;-42
2020/12/25 03:49:11;;;;;;;1.33;0.80;;;9.60;78.50;;;;;;5135018;27;20050;-42
2020/12/25 03:51:37;;;;;;;2.03;1.00;;;9.60;78.40;;;;;;5136226;27;20019;-43
2020/12/25 03:54:04;;;;;;;0.95;0.80;;;9.60;78.50;;;;;;5145774;27;20039;-42
2020/12/25 03:56:30;;;;;;;1.40;0.70;;;9.50;78.40;;;;;;5145351;27;20032;-43
2020/12/25 03:58:56;;;;;;;1.38;0.80;;;9.50;78.40;;;;;;5145678;27;20090;-42
2020/12/25 04:01:22;;;;;;;1.17;0.70;;;9.50;78.40;;;;;;5145360;27;20019;-42
2020/12/25 04:03:48;;;;;;;0.77;0.70;;;9.40;78.30;;;;;;5128019;27;20038;-43
2020/12/25 04:06:15;;;;;;;1.10;0.75;;;9.40;78.30;;;;;;5119686;28;20078;-42
2020/12/25 04:08:41;;;;;;;0.80;0.70;;;9.40;78.40;;;;;;5104409;28;20445;-42
2020/12/25 04:11:08;;;;;;;1.10;0.80;;;9.40;78.40;;;;;;5104417;28;20035;-42
2020/12/25 04:13:34;;;;;;;1.02;0.80;;;9.40;78.40;;;;;;5103789;28;20037;-43
2020/12/25 04:16:01;;;;;;;3.15;0.95;;;9.40;78.40;;;;;;5104180;28;20121;-42
2020/12/25 04:18:27;;;;;;;0.80;0.57;;;9.40;78.40;;;;;;5104152;28;20073;-42
2020/12/25 04:20:54;;;;;;;0.75;0.50;;;9.40;78.60;;;;;;5142071;27;20080;-43
2020/12/25 04:23:20;;;;;;;0.70;0.70;;;9.30;78.40;;;;;;5126342;27;20391;-43
2020/12/25 04:25:46;;;;;;;1.70;0.68;;;9.30;78.40;;;;;;5145208;27;20019;-42
2020/12/25 04:28:12;;;;;;;1.25;0.70;;;9.30;78.40;;;;;;5145159;27;20039;-42
2020/12/25 04:30:38;;;;;;;1.80;0.90;;;9.30;78.40;;;;;;5144976;27;20027;-43
2020/12/25 04:33:04;;;;;;;1.13;0.75;;;9.30;78.40;;;;;;5133719;27;20027;-43
2020/12/25 04:35:30;;;;;;;1.15;0.80;;;9.20;78.40;;;;;;5126492;27;20491;-42
2020/12/25 04:37:57;;;;;;;1.10;0.98;;;9.20;78.40;;;;;;5124274;28;20075;-43
2020/12/25 04:40:26;;;;;;;1.05;0.90;;;9.20;78.40;;;;;;5124318;27;20354;-43
2020/12/25 04:42:52;;;;;;;0.95;0.60;;;9.20;78.50;;;;;;5123714;28;20023;-43
2020/12/25 04:45:19;;;;;;;1.30;0.73;;;9.10;78.30;;;;;;5088998;28;20027;-42
2020/12/25 04:47:48;;;;;;;0.95;0.80;;;9.10;78.30;;;;;;5105929;28;20047;-43
2020/12/25 04:50:14;;;;;;;1.13;0.73;;;9.10;78.30;;;;;;5088849;28;20032;-43
2020/12/25 04:52:40;;;;;;;0.50;0.50;;;9.10;78.40;;;;;;5123736;28;20027;-43
2020/12/25 04:55:07;;;;;;;1.10;0.70;;;9.10;78.30;;;;;;5123989;28;20059;-42
2020/12/25 04:57:33;;;;;;;0.82;0.57;;;9.10;78.40;;;;;;5105701;28;20075;-42
2020/12/25 04:59:59;;;;;;;1.00;0.70;;;9.10;78.70;;;;;;5123918;28;20023;-43
2020/12/25 05:02:25;;;;;;;0.45;0.43;;;9.00;79.00;;;;;;5123598;28;20057;-43
2020/12/25 05:04:51;;;;;;;0.60;0.60;;;9.00;78.40;;;;;;5105466;28;20470;-42
2020/12/25 05:07:18;;;;;;;0.60;0.60;;;9.00;78.30;;;;;;5109586;28;20027;-43
2020/12/25 05:09:44;;;;;;;0.98;0.60;;;9.00;78.20;;;;;;5085381;28;20079;-42
2020/12/25 05:12:14;;;;;;;0.93;0.70;;;9.00;78.30;;;;;;5103153;28;20028;-43
2020/12/25 05:14:43;;;;;;;0.85;0.50;;;9.00;78.40;;;;;;5102887;28;20028;-44
2020/12/25 05:17:12;;;;;;;1.17;0.63;;;8.90;78.20;;;;;;5103220;28;20032;-43
2020/12/25 05:19:40;;;;;;;1.02;0.70;;;8.90;78.30;;;;;;5119989;27;20023;-42
2020/12/25 05:22:06;;;;;;;1.10;0.70;;;8.90;78.20;;;;;;5126014;27;20019;-42
2020/12/25 05:24:37;;;;;;;2.60;0.55;;;8.80;78.20;;;;;;5107739;28;20450;-42
2020/12/25 05:27:04;;;;;;;1.00;0.60;;;8.80;78.20;;;;;;5143923;27;20023;-43
2020/12/25 05:29:30;;;;;;;0.70;0.47;;;8.80;78.30;;;;;;5125592;27;20035;-43
2020/12/25 05:31:56;;;;;;;0.70;0.60;;;8.80;78.20;;;;;;5107249;28;20030;-43
2020/12/25 05:34:23;;;;;;;0.70;0.50;;;8.80;78.30;;;;;;5105087;28;20540;-42
2020/12/25 05:36:53;;;;;;;0.77;0.60;;;8.80;78.20;;;;;;5113374;28;20597;-43
2020/12/25 05:39:29;;;;;;;1.00;0.60;;;8.80;78.30;;;;;;5113370;28;20049;-42
2020/12/25 05:41:56;;;;;;;0.68;0.50;;;8.80;78.30;;;;;;5122690;28;20057;-42
2020/12/25 05:44:44;;;;;;;0.98;0.65;;;8.70;78.20;;;;;;5104835;28;20020;-42
2020/12/25 05:47:13;;;;;;;0.60;0.57;;;8.70;78.20;;;;;;5122850;28;20093;-43
2020/12/25 05:49:39;;;;;;;1.17;0.68;;;8.70;78.20;;;;;;5123273;28;20027;-42
2020/12/25 05:52:05;;;;;;;2.13;0.52;;;8.70;78.20;;;;;;5141037;28;20031;-44
2020/12/25 05:54:31;;;;;;;0.55;0.55;;;8.70;78.20;;;;;;5143558;28;20030;-42
2020/12/25 05:56:58;;;;;;;1.20;0.60;;;8.60;78.00;;;;;;5125317;28;20019;-43
2020/12/25 05:59:26;;;;;;;0.93;0.50;;;8.60;78.10;;;;;;5144025;28;20023;-42
2020/12/25 06:01:56;;;;;;;0.70;0.60;;;8.60;78.10;;;;;;5143031;28;20031;-42
2020/12/25 06:04:23;;;;;;;0.50;0.50;;;8.60;78.10;;;;;;5122815;28;20012;-42
2020/12/25 06:06:50;;;;;;;1.10;0.70;;;8.60;78.20;;;;;;5112901;28;20048;-42
2020/12/25 06:09:17;;;;;;;0.70;0.60;;;8.50;78.10;;;;;;5084383;28;20031;-42
2020/12/25 06:11:48;;;;;;;0.65;0.60;;;8.50;78.20;;;;;;5102626;28;20035;-42
2020/12/25 06:14:14;;;;;;;0.70;0.52;;;8.50;78.10;;;;;;5102423;28;20093;-42
2020/12/25 06:16:46;;;;;;;0.50;0.40;;;8.50;78.10;;;;;;5102760;28;20069;-42
2020/12/25 06:19:19;;;;;;;1.10;0.82;;;8.50;78.20;;;;;;5084269;28;20587;-42
2020/12/25 06:21:53;;;;;;;0.52;0.52;;;8.50;78.10;;;;;;5084696;28;20052;-42
2020/12/25 06:24:19;;;;;;;0.90;0.60;;;8.40;78.10;;;;;;5084199;28;20416;-42
2020/12/25 06:26:50;;;;;;;0.40;0.40;;;8.40;78.10;;;;;;5102734;28;20032;-42
2020/12/25 06:29:16;;;;;;;0.65;0.57;;;8.40;78.00;;;;;;5124704;28;20023;-42
2020/12/25 06:31:44;;;;;;;0.82;0.50;;;8.40;78.10;;;;;;5123017;28;20027;-42
2020/12/25 06:34:11;;;;;;;0.88;0.50;;;8.40;78.10;;;;;;5122573;28;20028;-42
2020/12/25 06:36:40;;;;;;;0.40;0.40;;;8.30;78.00;;;;;;5116358;28;20034;-43
2020/12/25 06:39:09;;;;;;;0.55;0.52;;;8.30;78.10;;;;;;5088026;28;20292;-42
2020/12/25 06:41:38;;;;;;;0.77;0.52;;;8.30;78.10;;;;;;5106103;28;20871;-42
2020/12/25 06:44:09;;;;;;;0.82;0.40;;;8.30;78.10;;;;;;5105969;28;20024;-42
2020/12/25 06:46:35;;;;;;;0.68;0.55;;;8.30;78.10;;;;;;5106037;28;20113;-42
2020/12/25 06:49:08;;;;;;;1.33;0.50;;;8.30;78.10;;;;;;5117899;27;20059;-42
2020/12/25 06:51:47;;;;;;;0.60;0.57;;;8.20;78.00;;;;;;5126584;28;20067;-42
2020/12/25 06:54:19;;;;;;;0.60;0.50;;;8.20;78.00;;;;;;5126156;28;20030;-42
2020/12/25 06:56:55;;;;;;;1.42;0.63;;;8.20;78.00;;;;;;5126273;28;20035;-42
2020/12/25 06:59:22;;;;;;;0.60;0.50;;;8.20;78.10;;;;;;5126216;28;20027;-42
2020/12/25 07:01:49;;;;;;;0.90;0.70;;;8.20;78.00;;;;;;5126143;28;20039;-42
2020/12/25 07:04:28;;;;;;;0.68;0.68;;;8.10;78.00;;;;;;5105722;28;20066;-42
2020/12/25 07:06:59;;;;;;;0.57;0.57;;;8.10;78.00;;;;;;5105811;28;20024;-42
2020/12/25 07:09:43;;;;;;;0.90;0.50;;;8.10;78.10;;;;;;5105914;28;20623;-42
2020/12/25 07:12:29;;;;;;;0.40;0.40;;;8.10;78.00;;;;;;5105712;28;20036;-43
2020/12/25 07:14:55;;;;;;;0.68;0.63;;;8.00;78.00;;;;;;5105118;28;20032;-42
2020/12/25 07:17:21;;;;;;;0.60;0.60;;;8.00;77.90;;;;;;5105698;28;20057;-42
2020/12/25 07:19:47;;;;;;;1.13;0.80;;;8.00;78.00;;;;;;5105387;28;20028;-42
2020/12/25 07:22:13;;;;;;;0.77;0.57;;;8.00;78.00;;;;;;5090747;28;20135;-41
2020/12/25 07:24:40;;;;;;;0.50;0.50;;;8.00;78.00;;;;;;5084891;28;20024;-42
2020/12/25 07:27:09;;;;;;;0.40;0.40;;;8.00;78.00;;;;;;5084965;28;20033;-42
2020/12/25 07:29:36;;;;;;;0.50;0.50;;;7.90;78.00;;;;;;5067813;28;20025;-42
2020/12/25 07:32:02;;;;;;;0.57;0.50;;;7.90;77.90;;;;;;5087295;28;20024;-42
2020/12/25 07:34:28;;;;;;;0.77;0.70;;;7.90;78.00;;;;;;5104934;28;20032;-42
2020/12/25 07:36:55;;;;;;;0.77;0.60;;;7.90;78.00;;;;;;5076361;28;20067;-43
2020/12/25 07:39:22;;;;;;;0.47;0.47;;;7.90;78.00;;;;;;5097496;28;20055;-42
2020/12/25 07:41:49;;;;;;;0.82;0.60;;;7.80;78.00;;;;;;5105038;28;20043;-42
2020/12/25 07:44:15;;;;;;;0.80;0.52;;;7.80;78.00;;;;;;5105244;28;20441;-42
2020/12/25 07:46:41;;;;;;;1.10;0.63;;;7.80;78.00;;;;;;5104405;28;20031;-42
2020/12/25 07:49:07;;;;;;;0.57;0.50;;;7.80;78.00;;;;;;5104198;28;20039;-43
2020/12/25 07:51:34;;;;;;;0.70;0.55;;;7.80;78.10;;;;;;5105161;28;20028;-42
2020/12/25 07:54:01;;;;;;;0.68;0.55;;;7.70;77.90;;;;;;5087010;28;20030;-42
2020/12/25 07:56:31;;;;;;;1.08;0.70;;;7.70;77.90;;;;;;5104590;28;20060;-42
2020/12/25 07:58:58;;;;;;;0.40;0.40;;;7.70;78.00;;;;;;5086433;28;20024;-42
2020/12/25 08:01:25;;;;;;;0.50;0.50;;;7.70;77.90;;;;;;5104771;28;20061;-42
2020/12/25 08:03:51;;;;;;;0.77;0.50;;;7.70;78.00;;;;;;5104795;28;20035;-42
2020/12/25 08:06:19;;;;;;;0.60;0.60;;;7.70;78.00;;;;;;5104173;28;20059;-42
2020/12/25 08:08:59;;;;;;;0.65;0.65;;;7.70;78.00;;;;;;5104851;28;20073;-42
2020/12/25 08:11:28;;;;;;;0.45;0.40;;;7.60;78.00;;;;;;5087527;28;20544;-41
2020/12/25 08:13:56;;;;;;;0.77;0.52;;;7.60;78.00;;;;;;5103200;28;20031;-42
2020/12/25 08:16:22;;;;;;;0.70;0.70;;;7.60;78.00;;;;;;5085989;28;20043;-42
2020/12/25 08:18:49;;;;;;;0.63;0.60;;;7.60;78.00;;;;;;5104293;28;20123;-43
2020/12/25 08:21:16;;;;;;;0.65;0.50;;;7.60;78.00;;;;;;5104163;28;20067;-42
2020/12/25 08:23:42;;;;;;;0.68;0.60;;;7.50;78.00;;;;;;5084164;28;20029;-43
2020/12/25 08:26:08;;;;;;;0.60;0.50;;;7.50;78.00;;;;;;5083900;28;20021;-42
2020/12/25 08:28:35;;;;;;;0.63;0.63;;;7.50;78.00;;;;;;5083913;28;20032;-42
2020/12/25 08:31:15;;;;;;;0.60;0.60;;;7.50;77.90;;;;;;5083966;28;20055;-42
2020/12/25 08:33:41;;;;;;;1.23;0.50;;;7.50;78.00;;;;;;5099791;28;20036;-42
2020/12/25 08:36:10;;;;;;;0.60;0.60;;;7.50;78.00;;;;;;5099892;28;20063;-42
2020/12/25 08:38:43;;;;;;;0.77;0.52;;;7.40;78.00;;;;;;5083569;28;20017;-42
2020/12/25 08:41:09;;;;;;;0.45;0.45;;;7.40;78.00;;;;;;5083715;28;20028;-42
2020/12/25 08:43:36;;;;;;;0.50;0.43;;;7.40;78.00;;;;;;5083823;28;20031;-42
2020/12/25 08:46:05;;;;;;;0.60;0.60;;;7.40;78.00;;;;;;5083383;28;20146;-43
2020/12/25 08:48:32;;;;;;;0.55;0.50;;;7.40;78.00;;;;;;5083734;28;20111;-42
2020/12/25 08:51:11;;;;;;;0.52;0.50;;;7.30;78.00;;;;;;5103069;28;20020;-43
2020/12/25 08:53:58;;;;;;;0.50;0.50;;;7.30;78.00;;;;;;5103977;28;20048;-42
2020/12/25 08:56:25;;;;;;;0.90;0.60;;;7.30;78.00;;;;;;5082504;28;20048;-42
2020/12/25 08:59:05;;;;;;;1.42;0.60;;;7.30;78.10;;;;;;5065791;28;20088;-42
2020/12/25 09:01:37;;;;;;;0.80;0.57;;;7.20;78.00;;;;;;5083546;28;20424;-42
2020/12/25 09:04:03;;;;;;;0.60;0.50;;;7.20;78.70;;;;;;5085143;28;20042;-42
2020/12/25 09:06:29;;;;;;;0.43;0.40;;;7.20;78.00;;;;;;5096048;28;20020;-42
2020/12/25 09:08:56;;;;;;;0.57;0.57;;;7.20;78.00;;;;;;5083293;28;20032;-43
2020/12/25 09:11:23;;;;;;;0.60;0.60;;;7.20;78.10;;;;;;5083392;28;20029;-42
2020/12/25 09:13:49;;;;;;;0.93;0.50;;;7.20;78.10;;;;;;5083176;28;20062;-42
2020/12/25 09:16:15;;;;;;;0.70;0.60;;;7.10;78.10;;;;;;5082896;28;20060;-42
2020/12/25 09:18:42;;;;;;;0.60;0.60;;;7.10;78.10;;;;;;5083247;28;20020;-42
2020/12/25 09:21:09;;;;;;;0.50;0.50;;;7.10;78.10;;;;;;5082918;28;20037;-42
2020/12/25 09:23:35;;;;;;;;;;;7.10;78.10;;;;;;5083608;28;20054;-42
2020/12/25 09:26:02;;;;;;;0.68;0.50;;;7.10;78.20;;;;;;5083033;28;19983;-42
2020/12/25 09:28:28;;;;;;;0.55;0.55;;;7.00;78.00;;;;;;5083039;28;20032;-42
2020/12/25 09:30:54;;;;;;;0.85;0.47;;;7.10;78.20;;;;;;5083175;28;20493;-42
2020/12/25 09:33:21;;;;;;;0.55;0.52;;;7.00;78.10;;;;;;5096108;28;20043;-42
2020/12/25 09:35:48;;;;;;;0.50;0.50;;;7.00;78.00;;;;;;5083912;28;20032;-48
2020/12/25 09:38:14;;;;;;;0.77;0.60;;;7.00;78.10;;;;;;5082817;28;20029;-49
2020/12/25 09:40:40;;;;;;;0.73;0.40;;;7.00;78.10;;;;;;5095311;28;20339;-49
2020/12/25 09:43:06;;;;;;;0.30;0.30;;;7.00;78.10;;;;;;5103273;28;20028;-48
2020/12/25 09:45:32;;;;;;;0.63;0.60;;;7.00;78.20;;;;;;5085170;28;20473;-48
2020/12/25 09:47:58;;;;;;;0.85;0.60;;;7.00;78.10;;;;;;5100006;28;20028;-48
2020/12/25 09:50:24;;;;;;;0.60;0.60;;;6.90;78.10;;;;;;5103302;28;20025;-49
2020/12/25 09:52:51;;;;;;;0.63;0.60;;;6.90;78.20;;;;;;5103077;28;20039;-49
2020/12/25 09:55:17;;;;;;;0.50;0.50;;;6.90;78.10;;;;;;5103112;28;20028;-48
2020/12/25 09:57:43;;;;;;;0.80;0.70;;;6.90;78.20;;;;;;5102839;28;20047;-48
2020/12/25 10:00:11;;;;;;;0.70;0.70;;;6.90;78.10;;;;;;5103015;28;20062;-48
2020/12/25 10:02:37;;;;;;;2.47;0.50;;;6.80;78.10;;;;;;5102882;28;20028;-48
2020/12/25 10:05:04;;;;;;;0.60;0.40;;;6.80;78.10;;;;;;5103109;28;20099;-49
2020/12/25 10:07:30;;;;;;;0.75;0.70;;;6.80;78.20;;;;;;5086872;28;20067;-48
2020/12/25 10:09:56;;;;;;;0.80;0.50;;;6.80;78.10;;;;;;5082872;28;20020;-48
2020/12/25 10:12:23;;;;;;;0.88;0.60;;;6.80;78.10;;;;;;5085451;28;20040;-48
2020/12/25 10:14:49;;;;;;;0.40;0.40;;;6.80;78.20;;;;;;5086531;28;20044;-48
2020/12/25 10:17:15;;;;;;;0.65;0.60;;;6.80;78.10;;;;;;5086452;28;20052;-48
2020/12/25 10:19:41;;;;;;;0.95;0.50;;;6.70;78.20;;;;;;5086411;28;20516;-51
2020/12/25 10:22:07;;;;;;;0.70;0.70;;;6.70;78.10;;;;;;5086374;28;20048;-49
2020/12/25 10:24:33;;;;;;;0.43;0.43;;;6.70;78.10;;;;;;5101151;28;20032;-48
2020/12/25 10:27:00;;;;;;;0.70;0.50;;;6.70;78.10;;;;;;5106557;28;20193;-49
2020/12/25 10:29:26;;;;;;;0.50;0.50;;;6.60;78.20;;;;;;5106559;28;20028;-48
2020/12/25 10:31:52;;;;;;;0.82;0.40;;;6.60;78.20;;;;;;5106773;28;20020;-48
2020/12/25 10:34:19;;;;;;;0.68;0.60;;;6.60;78.20;;;;;;5106504;28;20024;-48
2020/12/25 10:36:45;;;;;;;0.70;0.63;;;6.60;78.20;;;;;;5097050;28;20044;-48
2020/12/25 10:39:11;;;;;;;0.60;0.50;;;6.60;78.10;;;;;;5085928;28;20058;-48
2020/12/25 10:41:37;;;;;;;0.85;0.50;;;6.60;78.20;;;;;;5104230;28;20031;-48
2020/12/25 10:44:03;;;;;;;0.40;0.40;;;6.60;78.20;;;;;;5106496;28;20050;-50
2020/12/25 10:46:29;;;;;;;0.57;0.50;;;6.50;78.20;;;;;;5088052;28;20028;-48
2020/12/25 10:48:56;;;;;;;0.50;0.50;;;6.50;78.20;;;;;;5106114;28;20035;-48
2020/12/25 10:51:22;;;;;;;0.40;0.40;;;6.50;78.20;;;;;;5106063;28;20024;-49
2020/12/25 10:53:48;;;;;;;1.70;0.70;;;6.50;78.30;;;;;;5106355;28;20032;-48
2020/12/25 10:56:24;;;;;;;0.43;0.43;;;6.50;78.30;;;;;;5106340;28;20059;-48
2020/12/25 10:58:51;;;;;;;0.60;0.50;;;6.50;78.30;;;;;;5105741;28;20029;-48
2020/12/25 11:01:21;;;;;;;0.60;0.60;;;6.40;78.20;;;;;;5087974;28;20039;-48
2020/12/25 11:03:48;;;;;;;0.90;0.50;;;6.40;78.30;;;;;;5105893;28;20115;-48
2020/12/25 11:06:14;;;;;;;0.52;0.50;;;6.40;78.20;;;;;;5101110;28;20042;-48
2020/12/25 11:08:40;;;;;;;0.50;0.47;;;6.40;78.20;;;;;;5085428;28;20032;-49
2020/12/25 11:11:06;;;;;;;0.50;0.50;;;6.30;78.20;;;;;;5085711;28;20076;-48
2020/12/25 11:13:33;;;;;;;0.50;0.50;;;6.30;78.20;;;;;;5085584;28;20028;-48
2020/12/25 11:15:59;;;;;;;;;;;6.30;78.30;;;;;;5086006;28;20036;-48
2020/12/25 11:18:25;;;;;;;0.57;0.57;;;6.30;78.20;;;;;;5085324;28;19915;-48
2020/12/25 11:20:52;;;;;;;0.68;0.50;;;6.30;78.30;;;;;;5085379;28;20067;-48
2020/12/25 11:23:18;;;;;;;0.73;0.60;;;6.30;78.30;;;;;;5084265;28;20024;-48
2020/12/25 11:25:44;;;;;;;0.50;0.40;;;6.30;78.30;;;;;;5085554;28;20035;-49
2020/12/25 11:28:10;;;;;;;0.50;0.50;;;6.30;78.30;;;;;;5085077;28;20029;-48
2020/12/25 11:30:36;;;;;;;0.70;0.57;;;6.30;78.30;;;;;;5085321;28;20029;-48
2020/12/25 11:33:02;;;;;;;0.60;0.60;;;6.30;78.30;;;;;;5095794;28;20028;-49
2020/12/25 11:35:28;;;;;;;0.50;0.50;;;6.20;78.30;;;;;;5105222;28;20035;-48
2020/12/25 11:37:54;;;;;;;0.43;0.40;;;6.20;78.40;;;;;;5088688;28;20489;-48
2020/12/25 11:40:21;;;;;;;0.50;0.50;;;6.20;78.30;;;;;;5105172;28;20035;-49
2020/12/25 11:42:47;;;;;;;0.85;0.50;;;6.20;78.40;;;;;;5105261;28;20012;-49
2020/12/25 11:45:13;;;;;;;0.57;0.57;;;6.20;78.30;;;;;;5105383;28;20035;-48
2020/12/25 11:47:39;;;;;;;0.60;0.60;;;6.10;78.30;;;;;;5105120;28;20088;-48
2020/12/25 11:50:05;;;;;;;0.70;0.65;;;6.10;78.40;;;;;;5104872;28;20051;-49
2020/12/25 11:52:32;;;;;;;0.70;0.60;;;6.10;78.40;;;;;;5086825;28;20035;-48
2020/12/25 11:54:58;;;;;;;0.50;0.50;;;6.10;78.40;;;;;;5105154;28;20055;-48
2020/12/25 11:57:27;;;;;;;0.60;0.50;;;6.10;78.40;;;;;;5105190;28;20024;-49
2020/12/25 11:59:53;;;;;;;0.60;0.60;;;6.10;78.50;;;;;;5086975;28;20028;-48
2020/12/25 12:02:19;;;;;;;0.60;0.50;;;6.10;78.50;;;;;;5105032;28;20400;-48
2020/12/25 12:04:45;;;;;;;0.38;0.38;;;6.00;78.40;;;;;;5104932;28;20031;-48
2020/12/25 12:07:11;;;;;;;0.50;0.50;;;6.00;78.40;;;;;;5091801;28;20033;-48
2020/12/25 12:09:37;;;;;;;0.50;0.50;;;6.00;78.40;;;;;;5084272;28;20028;-49
2020/12/25 12:12:04;;;;;;;0.43;0.43;;;6.00;78.40;;;;;;5084651;28;20032;-49
2020/12/25 12:14:30;;;;;;;0.60;0.60;;;6.00;78.40;;;;;;5066137;28;20036;-48
2020/12/25 12:16:56;;;;;;;0.65;0.63;;;6.00;78.40;;;;;;5103382;28;20051;-49
2020/12/25 12:19:22;;;;;;;0.88;0.50;;;6.00;78.40;;;;;;5104309;28;20025;-48
2020/12/25 12:21:48;;;;;;;0.43;0.43;;;5.90;78.30;;;;;;5115464;28;20086;-49
2020/12/25 12:24:14;;;;;;;0.50;0.50;;;5.90;78.30;;;;;;5125110;28;20034;-48
2020/12/25 12:26:40;;;;;;;0.40;0.40;;;5.90;78.30;;;;;;5125110;28;20028;-48
2020/12/25 12:29:06;;;;;;;0.40;0.40;;;5.90;78.40;;;;;;5124585;28;20047;-48
2020/12/25 12:31:36;;;;;;;0.70;0.60;;;5.90;78.40;;;;;;5124961;28;20068;-48
2020/12/25 12:34:02;;;;;;;0.60;0.60;;;5.90;78.40;;;;;;5124235;28;20693;-48
2020/12/25 12:36:28;;;;;;;0.90;0.70;;;5.90;78.40;;;;;;5117573;28;20032;-48
2020/12/25 12:38:54;;;;;;;0.60;0.57;;;5.80;78.40;;;;;;5104298;28;20433;-48
2020/12/25 12:41:26;;;;;;;0.60;0.60;;;5.80;78.40;;;;;;5104274;28;20043;-48
2020/12/25 12:43:52;;;;;;;1.20;0.63;;;5.80;78.40;;;;;;5104195;28;20024;-48
2020/12/25 12:46:19;;;;;;;0.40;0.40;;;5.80;78.40;;;;;;5104163;28;20062;-49
2020/12/25 12:48:45;;;;;;;0.50;0.50;;;5.80;78.40;;;;;;5108423;27;20049;-48
2020/12/25 12:51:14;;;;;;;0.73;0.57;;;5.80;79.10;;;;;;5109206;27;20039;-48
2020/12/25 12:53:40;;;;;;;0.50;0.50;;;5.70;78.40;;;;;;5103763;28;20047;-48
2020/12/25 12:56:10;;;;;;;0.75;0.50;;;5.70;78.40;;;;;;5104078;28;20043;-48